createdAt,value
2023-05-05T00:01:46.447Z,13.12
2023-05-05T00:04:14.302Z,13.12
2023-05-05T00:06:42.260Z,13.03
2023-05-05T00:09:10.047Z,12.85
2023-05-05T00:11:37.883Z,12.60
2023-05-05T00:14:06.458Z,12.57
2023-05-05T00:16:34.393Z,12.67
2023-05-05T00:19:02.253Z,12.64
2023-05-05T00:21:30.039Z,12.72
2023-05-05T00:23:57.825Z,12.79
2023-05-05T00:26:25.731Z,12.82
2023-05-05T00:28:53.696Z,12.77
2023-05-05T00:31:21.859Z,12.71
2023-05-05T00:33:49.769Z,12.66
2023-05-05T00:36:17.808Z,12.33
2023-05-05T00:38:45.625Z,12.23
2023-05-05T00:41:13.486Z,12.13
2023-05-05T00:43:41.361Z,12.27
2023-05-05T00:46:31.865Z,12.08
2023-05-05T00:49:00.956Z,12.03
2023-05-05T00:51:28.917Z,12.12
2023-05-05T00:53:57.133Z,12.14
2023-05-05T00:56:27.214Z,12.27
2023-05-05T00:58:55.172Z,12.20
2023-05-05T01:01:23.110Z,11.95
2023-05-05T01:03:51.217Z,11.97
2023-05-05T01:06:46.924Z,11.72
2023-05-05T01:09:38.925Z,11.84
2023-05-05T01:12:28.238Z,11.86
2023-05-05T01:15:19.239Z,11.79
2023-05-05T01:17:59.094Z,11.61
2023-05-05T01:20:49.375Z,11.80
2023-05-05T01:23:59.962Z,11.89
2023-05-05T01:27:00.189Z,11.77
2023-05-05T01:29:35.590Z,11.32
2023-05-05T01:32:09.558Z,11.26
2023-05-05T01:34:45.086Z,11.56
2023-05-05T01:37:24.974Z,11.69
2023-05-05T01:39:58.593Z,11.53
2023-05-05T01:42:27.587Z,10.97
2023-05-05T01:44:57.201Z,10.97
2023-05-05T01:47:26.217Z,11.46
2023-05-05T01:49:54.856Z,11.58
2023-05-05T01:52:23.798Z,11.57
2023-05-05T01:54:52.932Z,11.57
2023-05-05T01:57:25.129Z,11.53
2023-05-05T01:59:54.392Z,11.56
2023-05-05T02:02:24.827Z,11.54
2023-05-05T02:04:54.562Z,11.29
2023-05-05T02:07:24.252Z,11.19
2023-05-05T02:09:53.011Z,11.04
2023-05-05T02:12:22.844Z,10.86
2023-05-05T02:14:51.520Z,10.84
2023-05-05T02:17:21.707Z,10.87
2023-05-05T02:19:52.397Z,10.70
2023-05-05T02:22:20.576Z,10.73
2023-05-05T02:24:48.411Z,10.94
2023-05-05T02:27:20.125Z,10.99
2023-05-05T02:30:01.460Z,10.86
2023-05-05T02:32:44.880Z,10.96
2023-05-05T02:35:28.518Z,10.98
2023-05-05T02:38:12.713Z,10.95
2023-05-05T02:40:44.192Z,11.06
2023-05-05T02:43:19.545Z,11.05
2023-05-05T02:45:48.135Z,10.95
2023-05-05T02:48:16.605Z,10.78
2023-05-05T02:50:44.430Z,10.61
2023-05-05T02:53:26.883Z,10.71
2023-05-05T02:56:14.667Z,10.48
2023-05-05T02:58:59.891Z,10.42
2023-05-05T03:01:53.778Z,10.47
2023-05-05T03:04:31.720Z,10.55
2023-05-05T03:07:06.857Z,10.40
2023-05-05T03:09:45.465Z,10.53
2023-05-05T03:12:21.811Z,10.40
2023-05-05T03:15:01.736Z,10.43
2023-05-05T03:17:32.619Z,10.42
2023-05-05T03:20:03.399Z,10.36
2023-05-05T03:22:37.684Z,10.34
2023-05-05T03:25:06.421Z,10.30
2023-05-05T03:27:34.206Z,10.18
2023-05-05T03:30:02.446Z,10.31
2023-05-05T03:32:32.424Z,10.30
2023-05-05T03:35:01.016Z,10.40
2023-05-05T03:37:31.741Z,10.43
2023-05-05T03:39:59.952Z,10.50
2023-05-05T03:42:27.961Z,10.53
2023-05-05T03:44:57.078Z,10.49
2023-05-05T03:47:25.293Z,10.34
2023-05-05T03:49:53.608Z,10.38
2023-05-05T03:52:21.509Z,10.38
2023-05-05T03:54:49.585Z,10.19
2023-05-05T03:57:17.948Z,10.43
2023-05-05T03:59:45.752Z,10.55
2023-05-05T04:02:13.872Z,10.53
2023-05-05T04:04:41.749Z,10.40
2023-05-05T04:07:09.886Z,10.45
2023-05-05T04:09:44.465Z,10.34
2023-05-05T04:12:13.009Z,10.22
2023-05-05T04:14:41.214Z,10.15
2023-05-05T04:17:09.709Z,10.36
2023-05-05T04:19:37.604Z,10.49
2023-05-05T04:22:05.564Z,10.47
2023-05-05T04:24:33.695Z,10.61
2023-05-05T04:27:02.230Z,10.40
2023-05-05T04:29:30.245Z,10.34
2023-05-05T04:31:57.988Z,10.44
2023-05-05T04:34:25.834Z,10.56
2023-05-05T04:36:53.738Z,10.49
2023-05-05T04:39:22.093Z,10.66
2023-05-05T04:41:50.740Z,10.67
2023-05-05T04:44:18.733Z,10.50
2023-05-05T04:46:46.762Z,10.62
2023-05-05T04:49:14.634Z,10.68
2023-05-05T04:51:43.620Z,10.60
2023-05-05T04:54:11.422Z,10.69
2023-05-05T04:56:39.243Z,10.64
2023-05-05T04:59:07.581Z,10.45
2023-05-05T05:01:38.307Z,10.63
2023-05-05T05:04:07.600Z,10.95
2023-05-05T05:06:36.516Z,11.22
2023-05-05T05:09:04.558Z,11.13
2023-05-05T05:11:32.421Z,11.00
2023-05-05T05:14:01.289Z,10.92
2023-05-05T05:16:29.094Z,10.91
2023-05-05T05:18:57.192Z,10.98
2023-05-05T05:21:26.059Z,11.18
2023-05-05T05:23:53.996Z,11.18
2023-05-05T05:26:22.150Z,11.00
2023-05-05T05:28:50.753Z,11.15
2023-05-05T05:31:18.630Z,11.09
2023-05-05T05:33:46.442Z,11.13
2023-05-05T05:36:14.863Z,11.35
2023-05-05T05:38:43.151Z,11.29
2023-05-05T05:41:11.472Z,11.09
2023-05-05T05:43:41.465Z,11.27
2023-05-05T05:46:10.410Z,11.56
2023-05-05T05:48:39.204Z,11.56
2023-05-05T05:51:07.148Z,11.61
2023-05-05T05:53:35.603Z,11.66
2023-05-05T05:56:04.166Z,11.44
2023-05-05T05:58:32.461Z,11.60
2023-05-05T06:01:00.268Z,11.90
2023-05-05T06:03:28.710Z,12.03
2023-05-05T06:05:58.932Z,11.97
2023-05-05T06:08:26.902Z,11.98
2023-05-05T06:10:55.589Z,12.32
2023-05-05T06:13:23.607Z,12.33
2023-05-05T06:15:53.045Z,12.19
2023-05-05T06:18:21.041Z,12.14
2023-05-05T06:20:50.874Z,12.05
2023-05-05T06:23:19.024Z,12.36
2023-05-05T06:25:51.043Z,12.49
2023-05-05T06:28:18.864Z,12.57
2023-05-05T06:30:46.678Z,12.80
2023-05-05T06:33:14.805Z,12.30
2023-05-05T06:35:42.647Z,12.30
2023-05-05T06:38:10.525Z,12.83
2023-05-05T06:40:38.582Z,12.86
2023-05-05T06:43:06.436Z,13.13
2023-05-05T06:45:37.292Z,13.41
2023-05-05T06:48:05.153Z,13.59
2023-05-05T06:50:33.177Z,13.72
2023-05-05T06:53:01.223Z,13.66
2023-05-05T06:55:29.136Z,13.55
2023-05-05T06:57:57.052Z,13.37
2023-05-05T07:00:25.064Z,13.42
2023-05-05T07:02:52.889Z,13.87
2023-05-05T07:05:20.957Z,13.97
2023-05-05T07:07:54.687Z,14.09
2023-05-05T07:10:24.480Z,14.00
2023-05-05T07:12:52.524Z,13.95
2023-05-05T07:15:28.615Z,13.85
2023-05-05T07:17:58.124Z,14.01
2023-05-05T07:20:26.760Z,14.31
2023-05-05T07:22:54.846Z,14.21
2023-05-05T07:25:22.693Z,14.05
2023-05-05T07:27:50.773Z,14.03
2023-05-05T07:30:19.494Z,14.30
2023-05-05T07:32:47.936Z,14.62
2023-05-05T07:35:15.990Z,14.59
2023-05-05T07:37:45.809Z,13.70
2023-05-05T07:40:13.839Z,13.62
2023-05-05T07:42:41.978Z,14.08
2023-05-05T07:45:10.997Z,14.17
2023-05-05T07:47:39.117Z,14.47
2023-05-05T07:50:08.711Z,14.65
2023-05-05T07:52:46.779Z,14.51
2023-05-05T07:55:19.770Z,14.66
2023-05-05T07:57:48.204Z,14.62
2023-05-05T08:00:19.218Z,14.40
2023-05-05T08:02:47.889Z,13.74
2023-05-05T08:05:16.719Z,13.61
2023-05-05T08:07:44.614Z,13.70
2023-05-05T08:10:12.872Z,13.69
2023-05-05T08:12:40.866Z,13.44
2023-05-05T08:15:09.663Z,13.58
2023-05-05T08:17:49.285Z,14.32
2023-05-05T08:20:19.484Z,14.88
2023-05-05T08:22:48.106Z,15.00
2023-05-05T08:25:16.028Z,14.77
2023-05-05T08:27:44.763Z,14.73
2023-05-05T08:30:13.420Z,14.96
2023-05-05T08:32:41.447Z,14.52
2023-05-05T08:35:10.167Z,14.73
2023-05-05T08:37:38.344Z,14.84
2023-05-05T08:40:07.358Z,15.19
2023-05-05T08:42:38.531Z,15.30
2023-05-05T08:45:10.225Z,15.04
2023-05-05T08:47:39.454Z,15.10
2023-05-05T08:50:10.946Z,15.64
2023-05-05T08:52:44.350Z,15.99
2023-05-05T08:55:38.672Z,16.21
2023-05-05T08:58:07.264Z,15.96
2023-05-05T09:00:36.016Z,15.71
2023-05-05T09:03:05.710Z,15.89
2023-05-05T09:05:33.625Z,16.59
2023-05-05T09:08:02.078Z,16.30
2023-05-05T09:10:30.959Z,16.69
2023-05-05T09:12:58.978Z,16.93
2023-05-05T09:15:28.318Z,15.90
2023-05-05T09:18:01.321Z,15.68
2023-05-05T09:20:37.803Z,16.49
2023-05-05T09:23:09.912Z,17.20
2023-05-05T09:25:38.786Z,17.19
2023-05-05T09:28:16.291Z,17.29
2023-05-05T09:30:47.156Z,16.87
2023-05-05T09:33:29.691Z,17.22
2023-05-05T09:35:58.816Z,16.95
2023-05-05T09:38:26.637Z,16.60
2023-05-05T09:40:54.828Z,16.38
2023-05-05T09:43:23.821Z,16.64
2023-05-05T09:45:51.861Z,17.05
2023-05-05T09:48:38.216Z,17.30
2023-05-05T09:51:06.078Z,17.66
2023-05-05T09:53:42.356Z,17.44
2023-05-05T09:56:10.368Z,16.72
2023-05-05T09:58:38.243Z,16.61
2023-05-05T10:01:06.279Z,16.65
2023-05-05T10:03:49.807Z,16.66
2023-05-05T10:06:17.661Z,17.17
2023-05-05T10:08:45.497Z,17.72
2023-05-05T10:11:13.857Z,17.71
2023-05-05T10:13:42.204Z,17.25
2023-05-05T10:16:13.248Z,17.95
2023-05-05T10:18:46.336Z,17.67
2023-05-05T10:21:19.820Z,17.82
2023-05-05T10:23:54.571Z,18.21
2023-05-05T10:26:25.552Z,17.25
2023-05-05T10:28:56.345Z,17.42
2023-05-05T10:31:30.530Z,18.30
2023-05-05T10:34:10.279Z,17.58
2023-05-05T10:36:39.265Z,17.75
2023-05-05T10:39:09.262Z,18.51
2023-05-05T10:41:37.715Z,18.62
2023-05-05T10:44:06.710Z,19.00
2023-05-05T10:46:34.679Z,19.49
2023-05-05T10:49:31.155Z,18.62
2023-05-05T10:53:00.181Z,18.54
2023-05-05T10:55:54.004Z,19.21
2023-05-05T10:58:47.142Z,19.21
2023-05-05T11:01:33.145Z,19.08
2023-05-05T11:04:21.760Z,18.86
2023-05-05T11:07:08.529Z,18.63
2023-05-05T11:09:58.184Z,18.96
2023-05-05T11:12:26.199Z,19.30
2023-05-05T11:15:31.337Z,18.47
2023-05-05T11:18:03.212Z,18.84
2023-05-05T11:20:36.200Z,18.81
2023-05-05T11:23:04.013Z,19.14
2023-05-05T11:25:35.054Z,19.23
2023-05-05T11:28:19.506Z,19.41
2023-05-05T11:30:56.939Z,18.82
2023-05-05T11:33:34.986Z,19.10
2023-05-05T11:36:13.946Z,19.68
2023-05-05T11:39:03.304Z,20.13
2023-05-05T11:41:34.002Z,20.19
2023-05-05T11:44:19.818Z,20.28
2023-05-05T11:46:50.576Z,19.94
2023-05-05T11:49:29.027Z,20.35
2023-05-05T11:52:04.232Z,20.33
2023-05-05T11:54:34.502Z,20.36
2023-05-05T11:57:08.218Z,20.52
2023-05-05T11:59:49.635Z,19.04
2023-05-05T12:02:22.014Z,19.37
2023-05-05T12:04:50.946Z,19.98
2023-05-05T12:07:22.021Z,19.37
2023-05-05T12:09:50.818Z,19.71
2023-05-05T12:12:19.480Z,19.21
2023-05-05T12:14:52.504Z,19.84
2023-05-05T12:17:22.552Z,19.76
2023-05-05T12:19:52.585Z,19.43
2023-05-05T12:22:25.935Z,19.69
2023-05-05T12:25:02.227Z,19.56
2023-05-05T12:27:30.565Z,18.53
2023-05-05T12:30:13.828Z,18.84
2023-05-05T12:32:42.246Z,19.64
2023-05-05T12:35:11.510Z,20.15
2023-05-05T12:37:39.846Z,20.11
2023-05-05T12:40:44.795Z,20.10
2023-05-05T12:43:32.705Z,19.38
2023-05-05T12:46:14.200Z,19.81
2023-05-05T12:48:47.388Z,19.76
2023-05-05T12:51:27.069Z,19.13
2023-05-05T12:54:11.566Z,19.56
2023-05-05T12:56:46.793Z,19.83
2023-05-05T12:59:24.093Z,20.07
2023-05-05T13:01:58.350Z,20.47
2023-05-05T13:04:28.549Z,20.08
2023-05-05T13:07:14.059Z,20.36
2023-05-05T13:09:42.379Z,20.56
2023-05-05T13:12:12.983Z,20.05
2023-05-05T13:14:41.783Z,19.57
2023-05-05T13:17:14.368Z,19.21
2023-05-05T13:19:45.799Z,19.56
2023-05-05T13:22:13.819Z,19.82
2023-05-05T13:24:51.827Z,19.92
2023-05-05T13:27:20.858Z,19.94
2023-05-05T13:29:48.854Z,21.35
2023-05-05T13:32:16.658Z,22.20
2023-05-05T13:34:44.552Z,21.95
2023-05-05T13:37:12.389Z,21.04
2023-05-05T13:39:40.484Z,20.87
2023-05-05T13:42:08.725Z,20.55
2023-05-05T13:44:36.592Z,20.32
2023-05-05T13:47:04.637Z,19.74
2023-05-05T13:49:32.455Z,19.16
2023-05-05T13:52:00.318Z,18.79
2023-05-05T13:54:28.176Z,19.25
2023-05-05T13:56:56.017Z,19.44
2023-05-05T13:59:25.694Z,19.11
2023-05-05T14:01:53.762Z,19.13
2023-05-05T14:04:21.610Z,19.11
2023-05-05T14:06:49.424Z,18.86
2023-05-05T14:09:17.234Z,19.76
2023-05-05T14:11:45.059Z,19.35
2023-05-05T14:14:12.896Z,19.24
2023-05-05T14:16:40.730Z,18.87
2023-05-05T14:19:08.636Z,19.51
2023-05-05T14:21:36.444Z,19.99
2023-05-05T14:24:04.526Z,19.89
2023-05-05T14:26:32.413Z,19.66
2023-05-05T14:29:00.556Z,18.57
2023-05-05T14:31:28.557Z,18.38
2023-05-05T14:33:56.430Z,18.95
2023-05-05T14:36:24.231Z,19.65
2023-05-05T14:38:52.231Z,19.11
2023-05-05T14:41:20.153Z,19.20
2023-05-05T14:43:47.981Z,20.70
2023-05-05T14:46:15.819Z,21.04
2023-05-05T14:48:43.678Z,22.16
2023-05-05T14:51:11.559Z,21.41
2023-05-05T14:53:39.396Z,20.78
2023-05-05T14:56:07.378Z,21.05
2023-05-05T14:58:35.242Z,20.00
2023-05-05T15:01:03.226Z,19.74
2023-05-05T15:03:31.541Z,20.49
2023-05-05T15:05:59.588Z,20.48
2023-05-05T15:08:27.469Z,21.08
2023-05-05T15:10:55.589Z,20.07
2023-05-05T15:13:23.578Z,19.45
2023-05-05T15:15:51.658Z,19.16
2023-05-05T15:18:20.045Z,18.47
2023-05-05T15:20:47.958Z,19.21
2023-05-05T15:23:16.112Z,19.96
2023-05-05T15:25:44.020Z,19.26
2023-05-05T15:28:11.868Z,18.90
2023-05-05T15:30:39.732Z,19.16
2023-05-05T15:33:07.680Z,19.05
2023-05-05T15:35:36.286Z,18.76
2023-05-05T15:38:04.458Z,17.94
2023-05-05T15:40:32.585Z,18.00
2023-05-05T15:43:00.420Z,19.11
2023-05-05T15:45:28.289Z,18.66
2023-05-05T15:47:56.102Z,18.86
2023-05-05T15:50:23.926Z,18.90
2023-05-05T15:52:51.786Z,18.57
2023-05-05T15:55:19.657Z,18.28
2023-05-05T15:57:47.447Z,18.62
2023-05-05T16:00:15.856Z,18.81
2023-05-05T16:02:43.801Z,18.28
2023-05-05T16:05:12.362Z,17.91
2023-05-05T16:07:40.365Z,17.87
2023-05-05T16:10:09.915Z,17.74
2023-05-05T16:12:38.240Z,17.23
2023-05-05T16:15:07.093Z,17.19
2023-05-05T16:17:35.291Z,17.96
2023-05-05T16:20:03.829Z,18.29
2023-05-05T16:22:31.857Z,18.15
2023-05-05T16:24:59.710Z,17.84
2023-05-05T16:27:27.526Z,17.90
2023-05-05T16:29:56.769Z,17.72
2023-05-05T16:32:26.223Z,17.38
2023-05-05T16:34:54.039Z,17.18
2023-05-05T16:37:21.838Z,17.31
2023-05-05T16:39:49.616Z,16.84
2023-05-05T16:42:17.406Z,17.16
2023-05-05T16:44:45.194Z,16.88
2023-05-05T16:47:13.111Z,16.16
2023-05-05T16:49:40.891Z,16.47
2023-05-05T16:52:08.679Z,16.62
2023-05-05T16:54:36.487Z,16.44
2023-05-05T16:57:04.259Z,16.67
2023-05-05T16:59:32.048Z,16.56
2023-05-05T17:02:00.174Z,16.86
2023-05-05T17:04:28.111Z,16.48
2023-05-05T17:06:56.300Z,16.27
2023-05-05T17:09:24.994Z,15.95
2023-05-05T17:11:52.799Z,15.88
2023-05-05T17:14:20.677Z,16.09
2023-05-05T17:16:48.504Z,16.01
2023-05-05T17:19:16.573Z,15.61
2023-05-05T17:21:44.401Z,15.37
2023-05-05T17:24:12.260Z,15.73
2023-05-05T17:26:41.383Z,15.88
2023-05-05T17:29:10.416Z,15.82
2023-05-05T17:31:40.257Z,15.94
2023-05-05T17:34:08.073Z,15.47
2023-05-05T17:36:35.899Z,15.04
2023-05-05T17:39:03.772Z,15.22
2023-05-05T17:41:31.637Z,15.32
2023-05-05T17:43:59.427Z,15.30
2023-05-05T17:46:27.905Z,14.72
2023-05-05T17:48:55.808Z,14.58
2023-05-05T17:51:23.743Z,14.43
2023-05-05T17:53:51.839Z,14.42
2023-05-05T17:56:19.712Z,14.70
2023-05-05T17:58:48.149Z,14.53
2023-05-05T18:01:24.337Z,14.47
2023-05-05T18:03:52.756Z,14.45
2023-05-05T18:06:20.545Z,14.12
2023-05-05T18:08:48.463Z,14.32
2023-05-05T18:11:16.360Z,14.24
2023-05-05T18:13:44.141Z,14.13
2023-05-05T18:16:12.038Z,13.99
2023-05-05T18:18:41.250Z,14.09
2023-05-05T18:21:12.267Z,14.11
2023-05-05T18:23:40.415Z,14.01
2023-05-05T18:26:08.497Z,13.88
2023-05-05T18:28:37.362Z,13.87
2023-05-05T18:31:05.307Z,13.70
2023-05-05T18:33:33.180Z,13.69
2023-05-05T18:36:03.432Z,13.73
2023-05-05T18:38:32.326Z,13.52
2023-05-05T18:41:00.205Z,13.52
2023-05-05T18:43:28.103Z,13.50
2023-05-05T18:45:55.959Z,13.30
2023-05-05T18:48:23.822Z,13.30
2023-05-05T18:50:52.498Z,13.41
2023-05-05T18:53:20.741Z,13.49
2023-05-05T18:55:49.332Z,13.35
2023-05-05T18:58:17.640Z,13.22
2023-05-05T19:00:45.487Z,13.34
2023-05-05T19:03:13.283Z,13.35
2023-05-05T19:05:42.075Z,13.35
2023-05-05T19:08:10.300Z,13.35
2023-05-05T19:10:38.164Z,13.28
2023-05-05T19:13:06.033Z,13.06
2023-05-05T19:15:34.321Z,12.98
2023-05-05T19:18:02.975Z,12.22
2023-05-05T19:20:31.709Z,12.17
2023-05-05T19:23:03.677Z,12.14
2023-05-05T19:25:31.681Z,12.10
2023-05-05T19:27:59.753Z,12.06
2023-05-05T19:30:27.605Z,11.98
2023-05-05T19:32:55.474Z,12.00
2023-05-05T19:35:23.437Z,11.99
2023-05-05T19:37:51.330Z,12.01
2023-05-05T19:40:19.278Z,12.30
2023-05-05T19:42:47.172Z,12.77
2023-05-05T19:45:15.570Z,12.87
2023-05-05T19:47:43.419Z,12.79
2023-05-05T19:50:12.367Z,12.76
2023-05-05T19:52:41.739Z,12.71
2023-05-05T19:55:10.543Z,12.69
2023-05-05T19:57:40.338Z,12.76
2023-05-05T20:00:10.445Z,12.77
2023-05-05T20:02:38.664Z,12.79
2023-05-05T20:05:06.928Z,12.80
2023-05-05T20:07:34.784Z,12.72
2023-05-05T20:10:02.627Z,12.67
2023-05-05T20:12:30.879Z,12.64
2023-05-05T20:14:58.636Z,12.52
2023-05-05T20:17:26.424Z,12.49
2023-05-05T20:19:54.706Z,12.40
2023-05-05T20:22:22.473Z,12.30
2023-05-05T20:24:50.441Z,12.41
2023-05-05T20:27:18.249Z,12.32
2023-05-05T20:29:46.238Z,12.37
2023-05-05T20:32:14.227Z,12.34
2023-05-05T20:34:42.019Z,12.39
2023-05-05T20:37:11.745Z,12.45
2023-05-05T20:39:42.275Z,12.49
2023-05-05T20:42:10.817Z,12.45
2023-05-05T20:44:40.035Z,12.13
2023-05-05T20:47:07.954Z,12.21
2023-05-05T20:49:36.128Z,12.27
2023-05-05T20:52:04.069Z,12.16
2023-05-05T20:54:35.445Z,12.16
2023-05-05T20:57:03.534Z,12.14
2023-05-05T20:59:32.120Z,12.13
2023-05-05T21:02:00.103Z,12.08
2023-05-05T21:04:28.069Z,12.06
2023-05-05T21:06:57.279Z,12.08
2023-05-05T21:09:25.204Z,12.01
2023-05-05T21:11:53.032Z,11.96
2023-05-05T21:14:20.808Z,11.86
2023-05-05T21:16:48.765Z,11.84
2023-05-05T21:19:16.790Z,11.85
2023-05-05T21:21:44.628Z,11.17
2023-05-05T21:24:15.451Z,11.51
2023-05-05T21:26:44.664Z,11.69
2023-05-05T21:29:12.533Z,11.58
2023-05-05T21:31:40.553Z,10.88
2023-05-05T21:34:08.371Z,10.45
2023-05-05T21:36:37.118Z,10.30
2023-05-05T21:39:05.081Z,10.22
2023-05-05T21:41:32.876Z,10.33
2023-05-05T21:44:00.958Z,10.35
2023-05-05T21:46:28.817Z,10.26
2023-05-05T21:48:56.629Z,10.21
2023-05-05T21:51:24.622Z,10.23
2023-05-05T21:53:52.693Z,9.93
2023-05-05T21:56:20.482Z,9.78
2023-05-05T21:58:48.245Z,9.72
2023-05-05T22:01:16.006Z,9.64
2023-05-05T22:03:43.978Z,9.52
2023-05-05T22:06:12.392Z,9.44
2023-05-05T22:08:40.353Z,9.52
2023-05-05T22:11:08.245Z,9.58
2023-05-05T22:13:37.474Z,9.61
2023-05-05T22:16:09.746Z,9.44
2023-05-05T22:18:37.874Z,9.42
2023-05-05T22:21:05.971Z,9.18
2023-05-05T22:23:33.821Z,9.23
2023-05-05T22:26:01.950Z,9.30
2023-05-05T22:28:29.818Z,9.25
2023-05-05T22:30:57.613Z,9.07
2023-05-05T22:33:25.494Z,9.03
2023-05-05T22:35:53.310Z,8.94
2023-05-05T22:38:21.112Z,9.06
2023-05-05T22:40:49.105Z,9.04
2023-05-05T22:43:16.948Z,9.06
2023-05-05T22:45:45.121Z,9.14
2023-05-05T22:48:12.933Z,9.11
2023-05-05T22:50:41.345Z,8.93
2023-05-05T22:53:09.139Z,8.66
2023-05-05T22:55:36.937Z,8.80
2023-05-05T22:58:04.687Z,8.88
2023-05-05T23:00:32.634Z,8.98
2023-05-05T23:03:00.538Z,8.96
2023-05-05T23:05:28.453Z,8.83
2023-05-05T23:07:59.815Z,8.84
2023-05-05T23:10:29.129Z,8.82
2023-05-05T23:12:56.907Z,8.80
2023-05-05T23:15:24.957Z,8.93
2023-05-05T23:17:52.836Z,8.93
2023-05-05T23:20:20.887Z,9.04
2023-05-05T23:22:48.711Z,8.91
2023-05-05T23:25:16.560Z,8.93
2023-05-05T23:27:44.361Z,8.96
2023-05-05T23:30:13.396Z,8.96
2023-05-05T23:32:42.651Z,8.98
2023-05-05T23:35:11.225Z,9.71
2023-05-05T23:37:39.366Z,10.07
2023-05-05T23:40:08.564Z,10.20
2023-05-05T23:42:36.479Z,10.00
2023-05-05T23:45:04.742Z,10.04
2023-05-05T23:47:32.690Z,10.19
2023-05-05T23:50:00.686Z,10.23
2023-05-05T23:52:28.549Z,10.10
2023-05-05T23:54:56.570Z,9.92
2023-05-05T23:57:24.416Z,9.96
2023-05-05T23:59:52.516Z,9.82
